createdAt,value
2023-03-01T00:01:54.395Z,53.40
2023-03-01T00:04:26.895Z,53.30
2023-03-01T00:06:59.464Z,53.84
2023-03-01T00:09:32.229Z,54.04
2023-03-01T00:12:06.734Z,54.31
2023-03-01T00:14:40.596Z,53.87
2023-03-01T00:17:13.943Z,53.29
2023-03-01T00:19:46.524Z,54.36
2023-03-01T00:22:19.720Z,54.86
2023-03-01T00:24:52.262Z,54.62
2023-03-01T00:27:25.509Z,55.35
2023-03-01T00:30:00.204Z,53.64
2023-03-01T00:32:33.119Z,53.42
2023-03-01T00:35:06.934Z,54.22
2023-03-01T00:37:40.069Z,53.76
2023-03-01T00:40:13.509Z,53.57
2023-03-01T00:42:46.716Z,53.86
2023-03-01T00:45:21.551Z,53.54
2023-03-01T00:47:55.172Z,53.44
2023-03-01T00:50:27.778Z,53.14
2023-03-01T00:53:00.380Z,53.07
2023-03-01T00:55:33.607Z,52.65
2023-03-01T00:58:06.351Z,52.02
2023-03-01T01:00:40.342Z,52.40
2023-03-01T01:03:13.114Z,53.07
2023-03-01T01:05:45.923Z,52.87
2023-03-01T01:08:18.889Z,52.08
2023-03-01T01:10:53.011Z,52.86
2023-03-01T01:13:25.495Z,52.34
2023-03-01T01:16:03.512Z,51.92
2023-03-01T01:18:37.015Z,52.64
2023-03-01T01:21:11.679Z,52.22
2023-03-01T01:23:46.445Z,52.94
2023-03-01T01:26:21.800Z,52.33
2023-03-01T01:28:56.422Z,52.70
2023-03-01T01:31:34.268Z,52.17
2023-03-01T01:34:08.899Z,51.87
2023-03-01T01:36:41.880Z,52.27
2023-03-01T01:39:15.125Z,52.30
2023-03-01T01:41:48.243Z,52.49
2023-03-01T01:44:24.917Z,52.66
2023-03-01T01:47:02.333Z,52.51
2023-03-01T01:49:39.191Z,52.42
2023-03-01T01:52:21.813Z,52.90
2023-03-01T01:54:58.541Z,52.75
2023-03-01T01:57:36.620Z,52.53
2023-03-01T02:00:12.837Z,53.46
2023-03-01T02:02:56.437Z,52.84
2023-03-01T02:05:37.739Z,53.42
2023-03-01T02:08:13.992Z,52.99
2023-03-01T02:10:47.655Z,52.68
2023-03-01T02:13:21.105Z,53.18
2023-03-01T02:15:53.694Z,53.00
2023-03-01T02:18:27.933Z,53.48
2023-03-01T02:21:11.983Z,53.20
2023-03-01T02:23:44.866Z,54.05
2023-03-01T02:26:26.174Z,53.36
2023-03-01T02:29:00.978Z,53.08
2023-03-01T02:31:43.430Z,53.72
2023-03-01T02:34:21.180Z,53.30
2023-03-01T02:36:57.700Z,53.46
2023-03-01T02:39:37.451Z,54.68
2023-03-01T02:42:13.612Z,54.36
2023-03-01T02:44:48.318Z,54.75
2023-03-01T02:47:21.292Z,54.72
2023-03-01T02:49:54.126Z,53.80
2023-03-01T02:52:42.188Z,54.33
2023-03-01T02:55:18.442Z,54.65
2023-03-01T02:57:52.117Z,54.77
2023-03-01T03:00:34.334Z,54.52
2023-03-01T03:03:08.579Z,54.60
2023-03-01T03:05:41.214Z,55.16
2023-03-01T03:08:14.870Z,55.61
2023-03-01T03:10:47.548Z,55.87
2023-03-01T03:13:20.622Z,56.12
2023-03-01T03:15:55.314Z,56.43
2023-03-01T03:18:28.601Z,56.50
2023-03-01T03:21:01.036Z,56.40
2023-03-01T03:23:34.155Z,57.91
2023-03-01T03:26:07.295Z,56.91
2023-03-01T03:28:41.355Z,58.02
2023-03-01T03:31:15.835Z,57.67
2023-03-01T03:33:48.686Z,58.37
2023-03-01T03:36:24.256Z,57.91
2023-03-01T03:38:57.310Z,58.03
2023-03-01T03:41:29.724Z,58.23
2023-03-01T03:44:02.470Z,58.69
2023-03-01T03:46:36.650Z,59.61
2023-03-01T03:49:09.386Z,59.58
2023-03-01T03:51:42.520Z,59.57
2023-03-01T03:54:14.983Z,60.07
2023-03-01T03:56:48.189Z,59.89
2023-03-01T03:59:20.952Z,59.51
2023-03-01T04:01:55.013Z,60.47
2023-03-01T04:04:28.085Z,60.29
2023-03-01T04:07:00.412Z,60.49
2023-03-01T04:09:33.441Z,59.92
2023-03-01T04:12:06.157Z,60.11
2023-03-01T04:14:39.213Z,60.96
2023-03-01T04:17:13.803Z,60.39
2023-03-01T04:19:50.226Z,60.83
2023-03-01T04:22:22.981Z,61.13
2023-03-01T04:24:56.361Z,60.93
2023-03-01T04:27:29.646Z,61.49
2023-03-01T04:30:02.487Z,61.00
2023-03-01T04:32:39.223Z,61.61
2023-03-01T04:35:12.321Z,61.73
2023-03-01T04:37:46.180Z,61.44
2023-03-01T04:40:19.089Z,61.49
2023-03-01T04:42:52.465Z,61.67
2023-03-01T04:45:25.238Z,61.37
2023-03-01T04:47:59.389Z,61.71
2023-03-01T04:50:32.104Z,61.36
2023-03-01T04:53:05.039Z,61.93
2023-03-01T04:55:37.410Z,61.38
2023-03-01T04:58:10.316Z,61.29
2023-03-01T05:00:43.369Z,61.84
2023-03-01T05:03:19.614Z,61.44
2023-03-01T05:05:54.208Z,61.15
2023-03-01T05:08:26.624Z,61.87
2023-03-01T05:10:59.580Z,61.37
2023-03-01T05:13:32.181Z,61.05
2023-03-01T05:16:07.287Z,61.57
2023-03-01T05:18:41.804Z,61.77
2023-03-01T05:21:17.557Z,62.04
2023-03-01T05:23:50.526Z,61.96
2023-03-01T05:26:28.477Z,62.49
2023-03-01T05:29:02.043Z,61.50
2023-03-01T05:31:34.524Z,61.96
2023-03-01T05:34:08.809Z,61.96
2023-03-01T05:36:41.839Z,61.81
2023-03-01T05:39:14.370Z,61.17
2023-03-01T05:41:47.417Z,61.39
2023-03-01T05:44:19.926Z,61.24
2023-03-01T05:46:52.832Z,61.16
2023-03-01T05:49:26.994Z,60.86
2023-03-01T05:51:59.703Z,60.69
2023-03-01T05:54:32.527Z,61.34
2023-03-01T05:57:05.001Z,60.99
2023-03-01T05:59:38.347Z,61.02
2023-03-01T06:02:10.718Z,60.66
2023-03-01T06:04:45.332Z,60.88
2023-03-01T06:07:18.342Z,60.27
2023-03-01T06:09:50.754Z,60.21
2023-03-01T06:12:24.059Z,59.75
2023-03-01T06:14:56.498Z,60.59
2023-03-01T06:17:31.988Z,59.47
2023-03-01T06:20:09.271Z,59.30
2023-03-01T06:22:43.152Z,60.11
2023-03-01T06:25:18.409Z,59.25
2023-03-01T06:27:51.601Z,60.03
2023-03-01T06:30:25.570Z,59.36
2023-03-01T06:33:01.948Z,58.83
2023-03-01T06:35:36.262Z,60.34
2023-03-01T06:38:08.962Z,59.77
2023-03-01T06:40:42.449Z,59.57
2023-03-01T06:43:17.103Z,59.81
2023-03-01T06:45:51.651Z,59.05
2023-03-01T06:48:24.346Z,58.99
2023-03-01T06:51:05.075Z,59.50
2023-03-01T06:53:37.550Z,58.79
2023-03-01T06:56:10.625Z,58.73
2023-03-01T06:58:43.393Z,58.78
2023-03-01T07:01:16.113Z,59.13
2023-03-01T07:03:49.018Z,58.63
2023-03-01T07:06:23.424Z,58.60
2023-03-01T07:08:56.483Z,57.91
2023-03-01T07:11:29.165Z,58.40
2023-03-01T07:14:02.467Z,58.05
2023-03-01T07:16:35.757Z,58.08
2023-03-01T07:19:08.389Z,57.98
2023-03-01T07:21:43.029Z,57.57
2023-03-01T07:24:15.871Z,58.27
2023-03-01T07:26:50.638Z,57.65
2023-03-01T07:29:22.981Z,57.63
2023-03-01T07:31:55.802Z,57.52
2023-03-01T07:34:28.570Z,57.66
2023-03-01T07:37:03.447Z,58.83
2023-03-01T07:39:36.066Z,58.67
2023-03-01T07:42:09.190Z,58.96
2023-03-01T07:44:41.621Z,57.88
2023-03-01T07:47:14.505Z,58.39
2023-03-01T07:49:47.303Z,58.82
2023-03-01T07:52:21.652Z,58.36
2023-03-01T07:54:54.321Z,58.34
2023-03-01T07:57:27.170Z,57.97
2023-03-01T07:59:59.786Z,58.39
2023-03-01T08:02:34.192Z,57.80
2023-03-01T08:05:07.511Z,58.58
2023-03-01T08:07:41.693Z,58.01
2023-03-01T08:10:14.762Z,58.13
2023-03-01T08:12:47.802Z,58.78
2023-03-01T08:15:20.219Z,58.13
2023-03-01T08:17:52.972Z,58.20
2023-03-01T08:20:25.659Z,58.91
2023-03-01T08:23:00.835Z,58.56
2023-03-01T08:25:33.386Z,58.30
2023-03-01T08:28:06.952Z,58.51
2023-03-01T08:30:39.466Z,58.38
2023-03-01T08:33:12.487Z,57.65
2023-03-01T08:35:45.126Z,58.74
2023-03-01T08:38:19.694Z,58.81
2023-03-01T08:40:52.110Z,57.82
2023-03-01T08:43:26.456Z,57.42
2023-03-01T08:45:59.335Z,57.93
2023-03-01T08:48:32.531Z,57.98
2023-03-01T08:51:12.650Z,57.50
2023-03-01T08:53:47.870Z,57.10
2023-03-01T08:56:20.628Z,57.16
2023-03-01T08:58:53.747Z,57.24
2023-03-01T09:01:26.228Z,57.89
2023-03-01T09:03:59.154Z,57.70
2023-03-01T09:06:34.269Z,57.73
2023-03-01T09:09:16.086Z,57.71
2023-03-01T09:11:51.438Z,57.84
2023-03-01T09:14:24.518Z,57.47
2023-03-01T09:16:57.398Z,57.08
2023-03-01T09:19:30.752Z,56.72
2023-03-01T09:22:04.780Z,57.41
2023-03-01T09:24:38.959Z,56.98
2023-03-01T09:27:11.585Z,57.88
2023-03-01T09:29:44.244Z,58.45
2023-03-01T09:32:16.966Z,56.53
2023-03-01T09:35:07.925Z,57.02
2023-03-01T09:37:44.112Z,56.79
2023-03-01T09:40:21.558Z,56.37
2023-03-01T09:43:01.499Z,56.64
2023-03-01T09:45:36.669Z,56.27
2023-03-01T09:48:17.032Z,56.54
2023-03-01T09:50:50.115Z,56.14
2023-03-01T09:53:28.118Z,56.36
2023-03-01T09:56:06.574Z,55.93
2023-03-01T09:58:48.654Z,55.36
2023-03-01T10:01:36.320Z,56.28
2023-03-01T10:04:30.298Z,55.49
2023-03-01T10:07:16.007Z,54.56
2023-03-01T10:09:51.421Z,54.61
2023-03-01T10:12:31.371Z,55.38
2023-03-01T10:15:12.004Z,54.87
2023-03-01T10:17:50.516Z,54.12
2023-03-01T10:20:25.834Z,54.91
2023-03-01T10:22:58.263Z,53.91
2023-03-01T10:25:48.775Z,55.04
2023-03-01T10:28:30.890Z,54.24
2023-03-01T10:31:04.514Z,53.00
2023-03-01T10:33:40.781Z,54.09
2023-03-01T10:36:13.577Z,54.88
2023-03-01T10:38:53.557Z,54.70
2023-03-01T10:41:28.384Z,54.22
2023-03-01T10:44:03.230Z,54.15
2023-03-01T10:46:38.253Z,53.71
2023-03-01T10:49:17.535Z,54.25
2023-03-01T10:51:52.478Z,54.07
2023-03-01T10:54:30.223Z,53.91
2023-03-01T10:57:04.779Z,54.21
2023-03-01T10:59:39.889Z,54.09
2023-03-01T11:02:25.411Z,53.99
2023-03-01T11:05:01.060Z,54.19
2023-03-01T11:07:48.735Z,53.03
2023-03-01T11:10:25.383Z,52.61
2023-03-01T11:13:10.370Z,52.70
2023-03-01T11:15:44.961Z,53.29
2023-03-01T11:18:23.678Z,53.33
2023-03-01T11:21:01.167Z,52.21
2023-03-01T11:23:34.395Z,53.73
2023-03-01T11:26:11.762Z,53.00
2023-03-01T11:28:50.178Z,51.77
2023-03-01T11:31:28.182Z,53.48
2023-03-01T11:34:07.340Z,53.21
2023-03-01T11:36:47.243Z,52.76
2023-03-01T11:39:29.092Z,52.12
2023-03-01T11:42:18.453Z,53.23
2023-03-01T11:44:56.243Z,52.96
2023-03-01T11:47:57.928Z,53.57
2023-03-01T11:50:37.352Z,52.98
2023-03-01T11:53:30.336Z,52.62
2023-03-01T11:56:14.647Z,52.39
2023-03-01T11:59:08.712Z,53.85
2023-03-01T12:01:57.813Z,52.75
2023-03-01T12:05:11.145Z,53.24
2023-03-01T12:07:50.968Z,51.79
2023-03-01T12:10:28.048Z,51.86
2023-03-01T12:13:28.947Z,52.29
2023-03-01T12:16:39.001Z,52.02
2023-03-01T12:19:32.606Z,52.04
2023-03-01T12:22:29.991Z,52.10
2023-03-01T12:25:19.914Z,52.67
2023-03-01T12:28:15.469Z,51.69
2023-03-01T12:31:31.545Z,52.33
2023-03-01T12:34:22.776Z,52.13
2023-03-01T12:37:12.991Z,53.00
2023-03-01T12:39:59.843Z,53.78
2023-03-01T12:42:42.813Z,52.33
2023-03-01T12:45:45.853Z,53.79
2023-03-01T12:48:37.857Z,54.45
2023-03-01T12:51:14.839Z,53.37
2023-03-01T12:53:49.892Z,53.27
2023-03-01T12:56:26.839Z,52.72
2023-03-01T12:59:08.067Z,52.50
2023-03-01T13:01:51.318Z,53.05
2023-03-01T13:04:59.371Z,53.76
2023-03-01T13:07:38.489Z,52.62
2023-03-01T13:10:22.955Z,53.45
2023-03-01T13:13:14.832Z,52.93
2023-03-01T13:15:50.167Z,54.11
2023-03-01T13:18:33.957Z,54.28
2023-03-01T13:21:07.303Z,53.77
2023-03-01T13:23:40.980Z,54.00
2023-03-01T13:26:16.821Z,52.70
2023-03-01T13:28:54.034Z,54.06
2023-03-01T13:32:00.704Z,54.30
2023-03-01T13:34:51.316Z,53.95
2023-03-01T13:37:27.513Z,53.67
2023-03-01T13:40:05.611Z,52.59
2023-03-01T13:42:48.180Z,53.42
2023-03-01T13:45:34.106Z,53.36
2023-03-01T13:48:19.538Z,52.94
2023-03-01T13:50:56.215Z,52.81
2023-03-01T13:53:34.207Z,52.70
2023-03-01T13:56:10.771Z,53.08
2023-03-01T13:58:50.628Z,52.99
2023-03-01T14:01:27.522Z,52.40
2023-03-01T14:04:01.516Z,52.56
2023-03-01T14:06:37.102Z,51.69
2023-03-01T14:09:19.714Z,51.94
2023-03-01T14:12:15.717Z,52.05
2023-03-01T14:14:58.009Z,51.90
2023-03-01T14:17:50.675Z,52.14
2023-03-01T14:20:25.642Z,51.50
2023-03-01T14:23:02.127Z,52.09
2023-03-01T14:25:37.523Z,52.20
2023-03-01T14:28:17.724Z,51.93
2023-03-01T14:30:52.156Z,52.08
2023-03-01T14:33:30.244Z,53.39
2023-03-01T14:36:06.002Z,52.41
2023-03-01T14:38:41.432Z,52.82
2023-03-01T14:41:17.086Z,53.37
2023-03-01T14:43:53.453Z,52.70
2023-03-01T14:46:31.630Z,53.20
2023-03-01T14:49:12.682Z,53.03
2023-03-01T14:51:53.116Z,52.84
2023-03-01T14:54:28.938Z,52.83
2023-03-01T14:57:02.952Z,53.77
2023-03-01T14:59:36.073Z,52.60
2023-03-01T15:02:18.374Z,53.13
2023-03-01T15:04:57.797Z,52.63
2023-03-01T15:07:32.898Z,52.53
2023-03-01T15:10:08.025Z,53.25
2023-03-01T15:12:42.449Z,52.21
2023-03-01T15:15:37.593Z,52.21
2023-03-01T15:18:21.668Z,52.79
2023-03-01T15:20:57.011Z,52.98
2023-03-01T15:23:31.936Z,53.38
2023-03-01T15:26:05.352Z,52.99
2023-03-01T15:28:50.149Z,52.78
2023-03-01T15:31:24.855Z,52.70
2023-03-01T15:34:12.605Z,52.41
2023-03-01T15:36:50.821Z,52.25
2023-03-01T15:39:39.416Z,52.40
2023-03-01T15:42:14.464Z,52.80
2023-03-01T15:44:47.818Z,52.32
2023-03-01T15:47:27.554Z,52.80
2023-03-01T15:50:02.418Z,52.48
2023-03-01T15:52:42.570Z,52.29
2023-03-01T15:55:20.779Z,52.36
2023-03-01T15:58:01.703Z,52.20
2023-03-01T16:00:35.005Z,52.04
2023-03-01T16:03:08.400Z,52.39
2023-03-01T16:05:42.061Z,52.39
2023-03-01T16:08:16.551Z,53.01
2023-03-01T16:10:52.679Z,52.51
2023-03-01T16:13:28.276Z,53.10
2023-03-01T16:16:02.246Z,53.17
2023-03-01T16:18:34.988Z,52.56
2023-03-01T16:21:07.829Z,52.25
2023-03-01T16:23:41.958Z,53.05
2023-03-01T16:26:15.549Z,53.17
2023-03-01T16:28:48.628Z,52.66
2023-03-01T16:31:21.356Z,53.43
2023-03-01T16:33:55.083Z,52.61
2023-03-01T16:36:31.714Z,53.27
2023-03-01T16:39:05.967Z,52.18
2023-03-01T16:41:38.663Z,52.65
2023-03-01T16:44:11.762Z,52.96
2023-03-01T16:46:44.907Z,53.23
2023-03-01T16:49:17.968Z,53.19
2023-03-01T16:51:51.013Z,52.84
2023-03-01T16:54:24.985Z,53.15
2023-03-01T16:56:57.738Z,52.70
2023-03-01T16:59:30.535Z,53.30
2023-03-01T17:02:03.617Z,53.39
2023-03-01T17:04:36.289Z,53.34
2023-03-01T17:07:09.174Z,52.92
2023-03-01T17:09:42.970Z,53.35
2023-03-01T17:12:16.727Z,53.31
2023-03-01T17:14:50.804Z,53.49
2023-03-01T17:17:24.089Z,53.26
2023-03-01T17:19:57.779Z,53.65
2023-03-01T17:22:30.463Z,53.57
2023-03-01T17:25:05.522Z,53.76
2023-03-01T17:27:38.810Z,54.07
2023-03-01T17:30:14.673Z,54.15
2023-03-01T17:32:47.208Z,53.70
2023-03-01T17:35:21.051Z,53.29
2023-03-01T17:37:53.708Z,54.35
2023-03-01T17:40:28.929Z,53.38
2023-03-01T17:43:02.044Z,54.30
2023-03-01T17:45:37.460Z,54.68
2023-03-01T17:48:10.897Z,54.24
2023-03-01T17:50:44.419Z,54.02
2023-03-01T17:53:17.194Z,54.14
2023-03-01T17:56:01.804Z,54.99
2023-03-01T17:58:34.697Z,54.48
2023-03-01T18:01:09.686Z,55.42
2023-03-01T18:03:46.528Z,55.21
2023-03-01T18:06:22.169Z,54.61
2023-03-01T18:08:55.735Z,54.76
2023-03-01T18:11:30.030Z,55.96
2023-03-01T18:14:04.391Z,56.27
2023-03-01T18:16:39.840Z,56.06
2023-03-01T18:19:13.758Z,55.80
2023-03-01T18:21:46.221Z,56.03
2023-03-01T18:24:19.341Z,55.74
2023-03-01T18:26:53.225Z,56.04
2023-03-01T18:29:26.838Z,55.76
2023-03-01T18:31:59.725Z,55.39
2023-03-01T18:34:32.833Z,56.52
2023-03-01T18:37:09.181Z,56.07
2023-03-01T18:39:43.029Z,56.80
2023-03-01T18:42:17.126Z,56.58
2023-03-01T18:44:50.599Z,56.47
2023-03-01T18:47:23.103Z,56.30
2023-03-01T18:49:56.376Z,56.91
2023-03-01T18:52:29.186Z,56.30
2023-03-01T18:55:01.594Z,56.42
2023-03-01T18:57:37.616Z,57.52
2023-03-01T19:00:11.440Z,57.41
2023-03-01T19:02:44.054Z,57.67
2023-03-01T19:05:18.171Z,57.55
2023-03-01T19:07:52.448Z,58.42
2023-03-01T19:10:25.423Z,57.10
2023-03-01T19:12:59.609Z,57.16
2023-03-01T19:15:32.111Z,58.36
2023-03-01T19:18:06.376Z,57.28
2023-03-01T19:20:39.616Z,57.70
2023-03-01T19:23:13.685Z,58.77
2023-03-01T19:25:46.737Z,58.22
2023-03-01T19:28:20.641Z,58.06
2023-03-01T19:31:00.429Z,57.63
2023-03-01T19:33:35.064Z,58.36
2023-03-01T19:36:08.979Z,58.25
2023-03-01T19:38:43.452Z,57.89
2023-03-01T19:41:17.930Z,58.30
2023-03-01T19:43:52.168Z,57.99
2023-03-01T19:46:25.489Z,57.80
2023-03-01T19:49:00.566Z,58.92
2023-03-01T19:51:36.292Z,58.79
2023-03-01T19:54:10.296Z,59.32
2023-03-01T19:56:42.951Z,59.46
2023-03-01T19:59:19.763Z,58.93
2023-03-01T20:01:52.768Z,59.56
2023-03-01T20:04:25.365Z,60.67
2023-03-01T20:06:58.200Z,60.08
2023-03-01T20:09:31.255Z,60.19
2023-03-01T20:12:04.137Z,61.97
2023-03-01T20:14:39.242Z,61.83
2023-03-01T20:17:11.768Z,63.05
2023-03-01T20:19:44.967Z,63.39
2023-03-01T20:22:17.901Z,63.77
2023-03-01T20:24:51.564Z,63.97
2023-03-01T20:27:24.103Z,65.48
2023-03-01T20:29:58.634Z,65.14
2023-03-01T20:32:31.174Z,65.14
2023-03-01T20:35:04.320Z,65.38
2023-03-01T20:37:36.838Z,66.07
2023-03-01T20:40:11.214Z,66.07
2023-03-01T20:42:44.698Z,66.54
2023-03-01T20:45:19.475Z,65.81
2023-03-01T20:47:52.860Z,66.40
2023-03-01T20:50:25.263Z,66.70
2023-03-01T20:52:58.491Z,66.56
2023-03-01T20:55:31.226Z,66.27
2023-03-01T20:58:04.028Z,66.54
2023-03-01T21:00:37.859Z,66.44
2023-03-01T21:03:11.025Z,67.62
2023-03-01T21:05:43.482Z,66.98
2023-03-01T21:08:16.200Z,68.32
2023-03-01T21:10:51.017Z,68.35
2023-03-01T21:13:25.351Z,67.96
2023-03-01T21:16:03.405Z,68.60
2023-03-01T21:18:37.462Z,68.46
2023-03-01T21:21:11.458Z,68.32
2023-03-01T21:23:45.547Z,68.70
2023-03-01T21:26:19.537Z,69.31
2023-03-01T21:28:56.243Z,69.27
2023-03-01T21:31:34.034Z,69.66
2023-03-01T21:34:07.456Z,69.75
2023-03-01T21:36:40.019Z,70.19
2023-03-01T21:39:12.970Z,69.29
2023-03-01T21:41:46.042Z,69.74
2023-03-01T21:44:18.483Z,70.56
2023-03-01T21:46:53.675Z,70.51
2023-03-01T21:49:27.193Z,70.12
2023-03-01T21:52:00.259Z,70.96
2023-03-01T21:54:34.174Z,70.29
2023-03-01T21:57:07.885Z,71.37
2023-03-01T21:59:40.799Z,70.40
2023-03-01T22:02:14.988Z,70.81
2023-03-01T22:04:47.989Z,70.78
2023-03-01T22:07:20.758Z,71.52
2023-03-01T22:09:53.302Z,71.36
2023-03-01T22:12:26.064Z,71.09
2023-03-01T22:14:59.791Z,71.13
2023-03-01T22:17:34.274Z,71.25
2023-03-01T22:20:07.909Z,71.38
2023-03-01T22:22:41.066Z,71.30
2023-03-01T22:25:13.621Z,71.54
2023-03-01T22:27:46.732Z,72.12
2023-03-01T22:30:19.377Z,71.53
2023-03-01T22:32:53.889Z,72.34
2023-03-01T22:35:26.693Z,72.05
2023-03-01T22:37:59.322Z,72.41
2023-03-01T22:40:32.314Z,71.93
2023-03-01T22:43:05.106Z,72.68
2023-03-01T22:45:37.832Z,72.64
2023-03-01T22:48:11.863Z,71.86
2023-03-01T22:50:44.961Z,72.66
2023-03-01T22:53:18.446Z,73.00
2023-03-01T22:58:42.413Z,72.13
2023-03-01T23:01:16.724Z,72.77
2023-03-01T23:03:51.803Z,73.02
2023-03-01T23:06:24.848Z,72.77
2023-03-01T23:09:00.293Z,72.67
2023-03-01T23:11:32.649Z,72.61
2023-03-01T23:14:05.764Z,73.19
2023-03-01T23:16:38.821Z,73.17
2023-03-01T23:19:12.876Z,73.83
2023-03-01T23:21:50.107Z,73.15
2023-03-01T23:24:32.315Z,73.35
2023-03-01T23:27:05.154Z,73.67
2023-03-01T23:29:38.148Z,74.18
2023-03-01T23:32:11.348Z,73.86
2023-03-01T23:34:45.566Z,74.47
2023-03-01T23:37:18.185Z,74.04
2023-03-01T23:39:51.462Z,73.88
2023-03-01T23:42:23.739Z,73.36
2023-03-01T23:44:56.508Z,73.83
2023-03-01T23:47:29.681Z,73.83
2023-03-01T23:50:05.572Z,74.17
2023-03-01T23:52:40.231Z,73.44
2023-03-01T23:55:14.996Z,73.44
2023-03-01T23:57:48.555Z,72.97
